KTVL/TVL METAR and TAF weather

Enter ICAO airport designator
Station Type Date Time Source
KTVL METAR 2022/11/30 17:53 UTC NOAA

KTVL 301753Z AUTO 20014G19KT 10SM CLR 05/M16 A2990 RMK AO2 SLP123 T00501156 10050 21022 58003


Station Type Date Time Source
KTVL Decoded METAR 2022/11/30 17:53 UTC NOAA

SOUTH LAKE TAHOE AIRPORT, CA, United States (KTVL) 38-53N 119-59W 1925M
Nov 30, 2022 - 12:53 PM EST / 2022.11.30 1753 UTC
Wind: from the SSW (200 degrees) at 16 MPH (14 KT) gusting to 22 MPH (19 KT):0
Visibility: 10 mile(s):0
Sky conditions: clear
Temperature: 41.0 F (5.0 C)
Dew Point: 3.9 F (-15.6 C)
Relative Humidity: 20%
Pressure (altimeter): 29.9 in. Hg (1012 hPa)
Pressure tendency: 0.01 inches (0.3 hPa) lower than three hours ago
ob: KTVL 301753Z AUTO 20014G19KT 10SM CLR 05/M16 A2990 RMK AO2 SLP123 T00501156 10050 21022 58003
cycle: 18

Station Type Date Time Source
KTVL TAF 2022/11/30 18:45 UTC NOAA

TAF KTVL 301743Z 3018/0118 20008KT P6SM SCT200
FM302000 19012G20KT P6SM SCT060 SCT200
FM010800 20023G37KT 3SM -SHSN BKN015 OVC030 WS020/21040KT
FM011400 20030G42KT 1SM -SHSN BR FEW007 OVC015 WS020/20050KT

Example: see airport list